sensor_id;sensor_type;location;lat;lon;timestamp;pressure;altitude;pressure_sealevel;temperature;humidity
61908;BME280;47864;52.526;19.672;2023-01-26T00:01:26;101835.66;;;1.50;100.00
61908;BME280;47864;52.526;19.672;2023-01-26T00:03:27;101832.66;;;1.59;100.00
61908;BME280;47864;52.526;19.672;2023-01-26T00:05:29;101831.78;;;1.38;100.00
61908;BME280;47864;52.526;19.672;2023-01-26T00:07:30;101825.41;;;1.45;100.00
61908;BME280;47864;52.526;19.672;2023-01-26T00:09:32;101826.66;;;1.57;100.00
61908;BME280;47864;52.526;19.672;2023-01-26T00:11:33;101807.69;;;1.52;100.00
61908;BME280;47864;52.526;19.672;2023-01-26T00:13:36;101832.88;;;1.55;100.00
61908;BME280;47864;52.526;19.672;2023-01-26T00:15:37;101822.03;;;1.64;100.00
61908;BME280;47864;52.526;19.672;2023-01-26T00:17:39;101814.88;;;1.47;100.00
61908;BME280;47864;52.526;19.672;2023-01-26T00:19:40;101825.63;;;1.61;100.00
61908;BME280;47864;52.526;19.672;2023-01-26T00:21:42;101826.66;;;1.57;100.00
61908;BME280;47864;52.526;19.672;2023-01-26T00:23:44;101829.56;;;1.49;100.00
61908;BME280;47864;52.526;19.672;2023-01-26T00:25:46;101816.66;;;1.46;100.00
61908;BME280;47864;52.526;19.672;2023-01-26T00:27:47;101814.63;;;1.53;100.00
61908;BME280;47864;52.526;19.672;2023-01-26T00:29:49;101820.66;;;1.55;100.00
61908;BME280;47864;52.526;19.672;2023-01-26T00:31:50;101823.84;;;1.62;100.00
61908;BME280;47864;52.526;19.672;2023-01-26T00:33:53;101825.41;;;1.66;100.00
61908;BME280;47864;52.526;19.672;2023-01-26T00:35:55;101824.44;;;1.48;100.00
61908;BME280;47864;52.526;19.672;2023-01-26T00:37:57;101816.47;;;1.29;100.00
61908;BME280;47864;52.526;19.672;2023-01-26T00:39:58;101807.69;;;1.32;100.00
61908;BME280;47864;52.526;19.672;2023-01-26T00:42:00;101815.69;;;1.27;100.00
61908;BME280;47864;52.526;19.672;2023-01-26T00:44:02;101820.31;;;1.21;100.00
61908;BME280;47864;52.526;19.672;2023-01-26T00:46:03;101804.94;;;1.13;100.00
61908;BME280;47864;52.526;19.672;2023-01-26T00:48:05;101799.13;;;1.06;100.00
61908;BME280;47864;52.526;19.672;2023-01-26T00:50:07;101793.16;;;1.03;100.00
61908;BME280;47864;52.526;19.672;2023-01-26T00:52:11;101791.00;;;0.91;100.00
61908;BME280;47864;52.526;19.672;2023-01-26T00:54:13;101789.03;;;0.97;100.00
61908;BME280;47864;52.526;19.672;2023-01-26T00:56:14;101784.56;;;0.99;100.00
61908;BME280;47864;52.526;19.672;2023-01-26T00:58:16;101788.78;;;1.03;100.00
61908;BME280;47864;52.526;19.672;2023-01-26T01:00:17;101784.50;;;1.01;100.00
61908;BME280;47864;52.526;19.672;2023-01-26T01:02:19;101776.72;;;0.99;100.00
61908;BME280;47864;52.526;19.672;2023-01-26T01:04:20;101771.50;;;0.99;100.00
61908;BME280;47864;52.526;19.672;2023-01-26T01:06:22;101778.31;;;1.03;100.00
61908;BME280;47864;52.526;19.672;2023-01-26T01:08:24;101781.13;;;0.99;100.00
61908;BME280;47864;52.526;19.672;2023-01-26T01:10:25;101776.63;;;1.02;100.00
61908;BME280;47864;52.526;19.672;2023-01-26T01:12:27;101772.13;;;1.06;100.00
61908;BME280;47864;52.526;19.672;2023-01-26T01:14:29;101763.44;;;1.05;100.00
61908;BME280;47864;52.526;19.672;2023-01-26T01:16:31;101761.69;;;1.06;100.00
61908;BME280;47864;52.526;19.672;2023-01-26T01:18:32;101767.88;;;1.03;100.00
61908;BME280;47864;52.526;19.672;2023-01-26T01:20:34;101770.53;;;1.02;100.00
61908;BME280;47864;52.526;19.672;2023-01-26T01:22:36;101734.66;;;0.85;100.00
61908;BME280;47864;52.526;19.672;2023-01-26T01:24:37;101762.34;;;1.11;100.00
61908;BME280;47864;52.526;19.672;2023-01-26T01:26:39;101763.25;;;1.10;100.00
61908;BME280;47864;52.526;19.672;2023-01-26T01:28:42;101755.94;;;1.18;100.00
61908;BME280;47864;52.526;19.672;2023-01-26T01:30:44;101758.22;;;1.05;100.00
61908;BME280;47864;52.526;19.672;2023-01-26T01:32:45;101761.84;;;1.01;100.00
61908;BME280;47864;52.526;19.672;2023-01-26T01:34:47;101757.44;;;1.03;100.00
61908;BME280;47864;52.526;19.672;2023-01-26T01:36:49;101752.84;;;1.08;100.00
61908;BME280;47864;52.526;19.672;2023-01-26T01:38:51;101747.13;;;1.21;100.00
61908;BME280;47864;52.526;19.672;2023-01-26T01:40:53;101751.19;;;1.28;100.00
61908;BME280;47864;52.526;19.672;2023-01-26T01:42:55;101744.22;;;1.28;100.00
61908;BME280;47864;52.526;19.672;2023-01-26T01:47:26;101714.53;;;0.87;100.00
61908;BME280;47864;52.526;19.672;2023-01-26T01:49:31;101746.91;;;1.05;100.00
61908;BME280;47864;52.526;19.672;2023-01-26T01:51:37;101741.94;;;0.99;100.00
61908;BME280;47864;52.526;19.672;2023-01-26T01:53:45;101740.94;;;1.01;100.00
61908;BME280;47864;52.526;19.672;2023-01-26T01:55:48;101739.34;;;0.99;100.00
61908;BME280;47864;52.526;19.672;2023-01-26T01:57:55;101730.94;;;1.12;100.00
61908;BME280;47864;52.526;19.672;2023-01-26T02:00:07;101728.47;;;1.30;100.00
61908;BME280;47864;52.526;19.672;2023-01-26T02:02:09;101733.50;;;1.34;100.00
61908;BME280;47864;52.526;19.672;2023-01-26T02:04:11;101730.03;;;1.34;100.00
61908;BME280;47864;52.526;19.672;2023-01-26T02:06:16;101733.63;;;1.31;100.00
61908;BME280;47864;52.526;19.672;2023-01-26T02:08:26;101724.16;;;1.29;100.00
61908;BME280;47864;52.526;19.672;2023-01-26T02:10:31;101709.16;;;1.32;100.00
61908;BME280;47864;52.526;19.672;2023-01-26T02:12:33;101706.91;;;1.45;100.00
61908;BME280;47864;52.526;19.672;2023-01-26T02:14:36;101709.19;;;1.52;100.00
61908;BME280;47864;52.526;19.672;2023-01-26T02:16:37;101719.00;;;1.47;100.00
61908;BME280;47864;52.526;19.672;2023-01-26T02:18:39;101704.47;;;1.40;100.00
61908;BME280;47864;52.526;19.672;2023-01-26T02:22:59;101699.69;;;1.50;100.00
61908;BME280;47864;52.526;19.672;2023-01-26T02:25:09;101701.09;;;1.38;100.00
61908;BME280;47864;52.526;19.672;2023-01-26T02:27:13;101692.53;;;1.14;100.00
61908;BME280;47864;52.526;19.672;2023-01-26T02:29:15;101692.13;;;1.03;100.00
61908;BME280;47864;52.526;19.672;2023-01-26T02:31:17;101686.25;;;0.98;100.00
61908;BME280;47864;52.526;19.672;2023-01-26T02:33:21;101691.19;;;1.04;100.00
61908;BME280;47864;52.526;19.672;2023-01-26T02:35:23;101687.47;;;0.90;100.00
61908;BME280;47864;52.526;19.672;2023-01-26T02:37:25;101686.84;;;0.83;100.00
61908;BME280;47864;52.526;19.672;2023-01-26T02:40:06;101678.56;;;0.94;100.00
61908;BME280;47864;52.526;19.672;2023-01-26T02:42:00;101684.00;;;0.89;100.00
61908;BME280;47864;52.526;19.672;2023-01-26T02:44:04;101681.19;;;0.94;100.00
61908;BME280;47864;52.526;19.672;2023-01-26T02:46:07;101679.09;;;0.82;100.00
61908;BME280;47864;52.526;19.672;2023-01-26T02:48:09;101652.44;;;0.73;100.00
61908;BME280;47864;52.526;19.672;2023-01-26T02:50:10;101681.38;;;0.89;100.00
61908;BME280;47864;52.526;19.672;2023-01-26T02:52:14;101657.66;;;0.73;100.00
61908;BME280;47864;52.526;19.672;2023-01-26T02:54:15;101666.19;;;0.99;100.00
61908;BME280;47864;52.526;19.672;2023-01-26T02:56:17;101666.78;;;1.05;100.00
61908;BME280;47864;52.526;19.672;2023-01-26T02:58:19;101662.09;;;1.13;100.00
61908;BME280;47864;52.526;19.672;2023-01-26T03:00:26;101657.50;;;1.19;100.00
61908;BME280;47864;52.526;19.672;2023-01-26T03:02:28;101650.31;;;1.24;100.00
61908;BME280;47864;52.526;19.672;2023-01-26T03:04:30;101649.78;;;1.15;100.00
61908;BME280;47864;52.526;19.672;2023-01-26T03:06:31;101642.03;;;1.14;100.00
61908;BME280;47864;52.526;19.672;2023-01-26T03:08:33;101649.66;;;1.19;100.00
61908;BME280;47864;52.526;19.672;2023-01-26T03:10:35;101654.41;;;1.09;100.00
61908;BME280;47864;52.526;19.672;2023-01-26T03:12:37;101635.03;;;1.14;100.00
61908;BME280;47864;52.526;19.672;2023-01-26T03:14:38;101634.19;;;1.14;100.00
61908;BME280;47864;52.526;19.672;2023-01-26T03:16:40;101637.38;;;1.00;100.00
61908;BME280;47864;52.526;19.672;2023-01-26T03:18:42;101636.19;;;1.07;100.00
61908;BME280;47864;52.526;19.672;2023-01-26T03:20:44;101639.47;;;1.12;100.00
61908;BME280;47864;52.526;19.672;2023-01-26T03:22:46;101639.22;;;0.98;100.00
61908;BME280;47864;52.526;19.672;2023-01-26T03:24:47;101638.53;;;0.93;100.00
61908;BME280;47864;52.526;19.672;2023-01-26T03:26:49;101630.69;;;0.93;100.00
61908;BME280;47864;52.526;19.672;2023-01-26T03:28:50;101632.16;;;1.00;100.00
61908;BME280;47864;52.526;19.672;2023-01-26T03:30:54;101630.38;;;1.01;100.00
61908;BME280;47864;52.526;19.672;2023-01-26T03:32:57;101631.81;;;1.08;100.00
61908;BME280;47864;52.526;19.672;2023-01-26T03:34:59;101630.78;;;1.12;100.00
61908;BME280;47864;52.526;19.672;2023-01-26T03:37:00;101629.66;;;1.18;100.00
61908;BME280;47864;52.526;19.672;2023-01-26T03:39:02;101628.56;;;1.23;100.00
61908;BME280;47864;52.526;19.672;2023-01-26T03:41:04;101628.56;;;1.23;100.00
61908;BME280;47864;52.526;19.672;2023-01-26T03:43:07;101628.81;;;1.17;100.00
61908;BME280;47864;52.526;19.672;2023-01-26T03:45:09;101626.16;;;1.19;100.00
61908;BME280;47864;52.526;19.672;2023-01-26T03:47:11;101624.50;;;1.16;100.00
61908;BME280;47864;52.526;19.672;2023-01-26T03:49:13;101625.75;;;1.07;100.00
61908;BME280;47864;52.526;19.672;2023-01-26T03:51:14;101622.31;;;1.07;100.00
61908;BME280;47864;52.526;19.672;2023-01-26T03:53:23;101623.91;;;1.09;100.00
61908;BME280;47864;52.526;19.672;2023-01-26T03:55:25;101620.13;;;1.17;100.00
61908;BME280;47864;52.526;19.672;2023-01-26T03:57:28;101619.38;;;1.14;100.00
61908;BME280;47864;52.526;19.672;2023-01-26T03:59:29;101618.56;;;1.12;100.00
61908;BME280;47864;52.526;19.672;2023-01-26T04:01:31;101609.44;;;1.23;100.00
61908;BME280;47864;52.526;19.672;2023-01-26T04:03:33;101607.97;;;1.15;100.00
61908;BME280;47864;52.526;19.672;2023-01-26T04:05:34;101610.47;;;1.19;100.00
61908;BME280;47864;52.526;19.672;2023-01-26T04:07:37;101610.34;;;1.22;100.00
61908;BME280;47864;52.526;19.672;2023-01-26T04:09:38;101605.06;;;1.23;100.00
61908;BME280;47864;52.526;19.672;2023-01-26T04:11:40;101608.19;;;1.31;100.00
61908;BME280;47864;52.526;19.672;2023-01-26T04:13:41;101604.44;;;1.37;100.00
61908;BME280;47864;52.526;19.672;2023-01-26T04:15:43;101605.22;;;1.39;100.00
61908;BME280;47864;52.526;19.672;2023-01-26T04:17:44;101597.13;;;1.25;100.00
61908;BME280;47864;52.526;19.672;2023-01-26T04:19:46;101598.59;;;1.32;100.00
61908;BME280;47864;52.526;19.672;2023-01-26T04:21:48;101603.66;;;1.35;100.00
61908;BME280;47864;52.526;19.672;2023-01-26T04:23:52;101606.03;;;1.21;100.00
61908;BME280;47864;52.526;19.672;2023-01-26T04:25:54;101594.31;;;1.29;100.00
61908;BME280;47864;52.526;19.672;2023-01-26T04:27:55;101592.41;;;1.33;100.00
61908;BME280;47864;52.526;19.672;2023-01-26T04:29:57;101597.28;;;1.22;100.00
61908;BME280;47864;52.526;19.672;2023-01-26T04:31:59;101590.81;;;1.30;100.00
61908;BME280;47864;52.526;19.672;2023-01-26T04:34:01;101610.38;;;1.40;100.00
61908;BME280;47864;52.526;19.672;2023-01-26T04:36:05;101603.47;;;1.39;100.00
61908;BME280;47864;52.526;19.672;2023-01-26T04:38:07;101599.94;;;1.20;100.00
61908;BME280;47864;52.526;19.672;2023-01-26T04:40:09;101600.53;;;1.27;100.00
61908;BME280;47864;52.526;19.672;2023-01-26T04:42:11;101605.13;;;1.22;100.00
61908;BME280;47864;52.526;19.672;2023-01-26T04:44:13;101602.84;;;1.14;100.00
61908;BME280;47864;52.526;19.672;2023-01-26T04:46:14;101604.25;;;1.21;100.00
61908;BME280;47864;52.526;19.672;2023-01-26T04:48:16;101602.44;;;1.23;100.00
61908;BME280;47864;52.526;19.672;2023-01-26T04:50:17;101595.50;;;1.22;100.00
61908;BME280;47864;52.526;19.672;2023-01-26T04:52:19;101587.78;;;1.19;100.00
61908;BME280;47864;52.526;19.672;2023-01-26T04:54:21;101581.31;;;1.07;100.00
61908;BME280;47864;52.526;19.672;2023-01-26T04:56:28;101580.56;;;1.05;100.00
61908;BME280;47864;52.526;19.672;2023-01-26T04:58:31;101578.19;;;0.99;100.00
61908;BME280;47864;52.526;19.672;2023-01-26T05:00:33;101571.75;;;0.88;100.00
61908;BME280;47864;52.526;19.672;2023-01-26T05:02:35;101576.44;;;0.80;100.00
61908;BME280;47864;52.526;19.672;2023-01-26T05:04:36;101582.13;;;0.89;100.00
61908;BME280;47864;52.526;19.672;2023-01-26T05:06:38;101574.66;;;1.00;100.00
61908;BME280;47864;52.526;19.672;2023-01-26T05:08:40;101587.81;;;0.99;100.00
61908;BME280;47864;52.526;19.672;2023-01-26T05:10:41;101570.50;;;0.96;100.00
61908;BME280;47864;52.526;19.672;2023-01-26T05:12:43;101581.84;;;1.15;100.00
61908;BME280;47864;52.526;19.672;2023-01-26T05:14:45;101577.09;;;1.05;100.00
61908;BME280;47864;52.526;19.672;2023-01-26T05:16:46;101575.47;;;1.02;100.00
61908;BME280;47864;52.526;19.672;2023-01-26T05:18:48;101567.63;;;1.02;100.00
61908;BME280;47864;52.526;19.672;2023-01-26T05:20:50;101575.84;;;0.93;100.00
61908;BME280;47864;52.526;19.672;2023-01-26T05:22:51;101570.63;;;0.93;100.00
61908;BME280;47864;52.526;19.672;2023-01-26T05:24:53;101573.06;;;0.98;100.00
61908;BME280;47864;52.526;19.672;2023-01-26T05:26:54;101570.78;;;0.90;100.00
61908;BME280;47864;52.526;19.672;2023-01-26T05:28:56;101561.03;;;0.94;100.00
61908;BME280;47864;52.526;19.672;2023-01-26T05:30:57;101574.94;;;0.94;100.00
61908;BME280;47864;52.526;19.672;2023-01-26T05:33:03;101572.22;;;0.97;100.00
61908;BME280;47864;52.526;19.672;2023-01-26T05:35:06;101572.97;;;0.99;100.00
61908;BME280;47864;52.526;19.672;2023-01-26T05:37:08;101575.41;;;1.04;100.00
61908;BME280;47864;52.526;19.672;2023-01-26T05:39:10;101576.84;;;1.11;100.00
61908;BME280;47864;52.526;19.672;2023-01-26T05:41:11;101577.75;;;1.10;100.00
61908;BME280;47864;52.526;19.672;2023-01-26T05:43:13;101579.50;;;1.09;100.00
61908;BME280;47864;52.526;19.672;2023-01-26T05:45:15;101576.88;;;1.09;100.00
61908;BME280;47864;52.526;19.672;2023-01-26T05:47:16;101568.09;;;1.12;100.00
61908;BME280;47864;52.526;19.672;2023-01-26T05:49:18;101574.09;;;1.14;100.00
61908;BME280;47864;52.526;19.672;2023-01-26T05:51:19;101572.34;;;1.14;100.00
61908;BME280;47864;52.526;19.672;2023-01-26T05:53:21;101564.31;;;0.99;100.00
61908;BME280;47864;52.526;19.672;2023-01-26T05:55:23;101567.97;;;0.95;100.00
61908;BME280;47864;52.526;19.672;2023-01-26T05:57:24;101561.28;;;1.08;100.00
61908;BME280;47864;52.526;19.672;2023-01-26T05:59:26;101562.22;;;1.07;100.00
61908;BME280;47864;52.526;19.672;2023-01-26T06:01:27;101562.84;;;1.12;100.00
61908;BME280;47864;52.526;19.672;2023-01-26T06:03:30;101562.63;;;1.17;100.00
61908;BME280;47864;52.526;19.672;2023-01-26T06:05:31;101564.06;;;1.24;100.00
61908;BME280;47864;52.526;19.672;2023-01-26T06:07:33;101561.72;;;1.18;100.00
61908;BME280;47864;52.526;19.672;2023-01-26T06:09:35;101559.38;;;1.11;100.00
61908;BME280;47864;52.526;19.672;2023-01-26T06:11:36;101555.41;;;1.23;100.00
61908;BME280;47864;52.526;19.672;2023-01-26T06:13:38;101542.94;;;1.09;100.00
61908;BME280;47864;52.526;19.672;2023-01-26T06:15:39;101558.19;;;1.19;100.00
61908;BME280;47864;52.526;19.672;2023-01-26T06:17:41;101557.28;;;1.20;100.00
61908;BME280;47864;52.526;19.672;2023-01-26T06:19:43;101557.69;;;1.31;100.00
61908;BME280;47864;52.526;19.672;2023-01-26T06:21:44;101560.69;;;1.22;100.00
61908;BME280;47864;52.526;19.672;2023-01-26T06:23:46;101559.22;;;1.35;100.00
61908;BME280;47864;52.526;19.672;2023-01-26T06:25:47;101557.41;;;1.37;100.00
61908;BME280;47864;52.526;19.672;2023-01-26T06:27:49;101559.56;;;1.27;100.00
61908;BME280;47864;52.526;19.672;2023-01-26T06:29:51;101563.97;;;1.06;100.00
61908;BME280;47864;52.526;19.672;2023-01-26T06:31:52;101554.50;;;1.04;100.00
61908;BME280;47864;52.526;19.672;2023-01-26T06:33:55;101569.06;;;1.09;100.00
61908;BME280;47864;52.526;19.672;2023-01-26T06:36:03;101569.00;;;1.11;100.00
61908;BME280;47864;52.526;19.672;2023-01-26T06:38:05;101557.13;;;1.04;100.00
61908;BME280;47864;52.526;19.672;2023-01-26T06:40:07;101559.78;;;1.02;100.00
61908;BME280;47864;52.526;19.672;2023-01-26T06:42:09;101553.66;;;1.03;100.00
61908;BME280;47864;52.526;19.672;2023-01-26T06:44:10;101553.25;;;1.12;100.00
61908;BME280;47864;52.526;19.672;2023-01-26T06:46:13;101545.41;;;1.12;100.00
61908;BME280;47864;52.526;19.672;2023-01-26T06:48:15;101565.25;;;1.17;100.00
61908;BME280;47864;52.526;19.672;2023-01-26T06:50:22;101561.03;;;1.14;100.00
61908;BME280;47864;52.526;19.672;2023-01-26T06:52:29;101561.44;;;1.24;100.00
61908;BME280;47864;52.526;19.672;2023-01-26T06:54:31;101547.34;;;1.28;100.00
61908;BME280;47864;52.526;19.672;2023-01-26T06:56:33;101552.13;;;1.18;100.00
61908;BME280;47864;52.526;19.672;2023-01-26T06:58:34;101551.09;;;1.22;100.00
61908;BME280;47864;52.526;19.672;2023-01-26T07:00:36;101549.97;;;1.07;100.00
61908;BME280;47864;52.526;19.672;2023-01-26T07:02:38;101556.31;;;1.02;100.00
61908;BME280;47864;52.526;19.672;2023-01-26T07:04:40;101555.88;;;1.12;100.00
61908;BME280;47864;52.526;19.672;2023-01-26T07:06:41;101556.38;;;1.00;100.00
61908;BME280;47864;52.526;19.672;2023-01-26T07:08:43;101556.25;;;1.03;100.00
61908;BME280;47864;52.526;19.672;2023-01-26T07:10:45;101554.91;;;0.95;100.00
61908;BME280;47864;52.526;19.672;2023-01-26T07:12:47;101561.66;;;1.19;100.00
61908;BME280;47864;52.526;19.672;2023-01-26T07:14:48;101562.63;;;1.17;100.00
61908;BME280;47864;52.526;19.672;2023-01-26T07:16:50;101561.03;;;1.14;100.00
61908;BME280;47864;52.526;19.672;2023-01-26T07:18:52;101561.94;;;0.93;100.00
61908;BME280;47864;52.526;19.672;2023-01-26T07:21:01;101531.84;;;0.84;100.00
61908;BME280;47864;52.526;19.672;2023-01-26T07:23:03;101556.59;;;0.96;100.00
61908;BME280;47864;52.526;19.672;2023-01-26T07:25:04;101553.31;;;0.91;100.00
61908;BME280;47864;52.526;19.672;2023-01-26T07:27:06;101543.31;;;1.00;100.00
61908;BME280;47864;52.526;19.672;2023-01-26T07:29:08;101550.03;;;1.26;100.00
61908;BME280;47864;52.526;19.672;2023-01-26T07:31:10;101528.94;;;1.10;100.00
61908;BME280;47864;52.526;19.672;2023-01-26T07:33:12;101535.47;;;1.21;100.00
61908;BME280;47864;52.526;19.672;2023-01-26T07:35:13;101553.81;;;1.19;100.00
61908;BME280;47864;52.526;19.672;2023-01-26T07:37:15;101537.84;;;1.06;100.00
61908;BME280;47864;52.526;19.672;2023-01-26T07:39:16;101552.97;;;1.19;100.00
61908;BME280;47864;52.526;19.672;2023-01-26T07:41:18;101555.25;;;1.26;100.00
61908;BME280;47864;52.526;19.672;2023-01-26T07:43:20;101555.13;;;1.29;100.00
61908;BME280;47864;52.526;19.672;2023-01-26T07:45:21;101558.81;;;1.44;100.00
61908;BME280;47864;52.526;19.672;2023-01-26T07:47:23;101558.31;;;1.15;100.00
61908;BME280;47864;52.526;19.672;2023-01-26T07:49:24;101562.44;;;1.21;100.00
61908;BME280;47864;52.526;19.672;2023-01-26T07:51:26;101564.41;;;1.16;100.00
61908;BME280;47864;52.526;19.672;2023-01-26T07:53:29;101548.31;;;1.25;100.00
61908;BME280;47864;52.526;19.672;2023-01-26T07:55:31;101558.03;;;1.42;100.00
61908;BME280;47864;52.526;19.672;2023-01-26T07:57:33;101556.09;;;1.27;100.00
61908;BME280;47864;52.526;19.672;2023-01-26T07:59:34;101562.19;;;1.27;100.00
61908;BME280;47864;52.526;19.672;2023-01-26T08:01:36;101561.19;;;1.30;100.00
61908;BME280;47864;52.526;19.672;2023-01-26T08:03:37;101556.38;;;1.21;100.00
61908;BME280;47864;52.526;19.672;2023-01-26T08:05:40;101557.13;;;1.04;100.00
61908;BME280;47864;52.526;19.672;2023-01-26T08:07:42;101556.06;;;1.08;100.00
61908;BME280;47864;52.526;19.672;2023-01-26T08:09:43;101555.94;;;1.11;100.00
61908;BME280;47864;52.526;19.672;2023-01-26T08:11:45;101556.78;;;1.11;100.00
61908;BME280;47864;52.526;19.672;2023-01-26T08:13:46;101550.19;;;1.03;100.00
61908;BME280;47864;52.526;19.672;2023-01-26T08:15:48;101558.75;;;1.06;100.00
61908;BME280;47864;52.526;19.672;2023-01-26T08:17:50;101550.66;;;0.92;100.00
61908;BME280;47864;52.526;19.672;2023-01-26T08:19:54;101552.56;;;0.89;100.00
61908;BME280;47864;52.526;19.672;2023-01-26T08:21:56;101531.78;;;0.86;100.00
61908;BME280;47864;52.526;19.672;2023-01-26T08:23:58;101549.28;;;1.04;100.00
61908;BME280;47864;52.526;19.672;2023-01-26T08:26:01;101533.47;;;1.07;100.00
61908;BME280;47864;52.526;19.672;2023-01-26T08:28:03;101550.97;;;1.05;100.00
61908;BME280;47864;52.526;19.672;2023-01-26T08:30:05;101547.78;;;0.98;100.00
61908;BME280;47864;52.526;19.672;2023-01-26T08:32:06;101551.84;;;1.05;100.00
61908;BME280;47864;52.526;19.672;2023-01-26T08:34:08;101549.22;;;1.05;100.00
61908;BME280;47864;52.526;19.672;2023-01-26T08:36:11;101549.91;;;1.09;100.00
61908;BME280;47864;52.526;19.672;2023-01-26T08:38:13;101548.72;;;1.16;100.00
61908;BME280;47864;52.526;19.672;2023-01-26T08:40:15;101559.19;;;1.16;100.00
61908;BME280;47864;52.526;19.672;2023-01-26T08:42:16;101565.28;;;1.35;100.00
61908;BME280;47864;52.526;19.672;2023-01-26T08:44:18;101568.88;;;1.33;100.00
61908;BME280;47864;52.526;19.672;2023-01-26T08:46:20;101562.75;;;1.34;100.00
61908;BME280;47864;52.526;19.672;2023-01-26T08:48:21;101564.59;;;1.50;100.00
61908;BME280;47864;52.526;19.672;2023-01-26T08:50:24;101550.75;;;1.48;100.00
61908;BME280;47864;52.526;19.672;2023-01-26T08:52:27;101548.97;;;1.49;100.00
61908;BME280;47864;52.526;19.672;2023-01-26T08:54:29;101539.72;;;1.42;100.00
61908;BME280;47864;52.526;19.672;2023-01-26T08:56:30;101547.84;;;1.36;100.00
61908;BME280;47864;52.526;19.672;2023-01-26T08:58:32;101553.69;;;1.22;100.00
61908;BME280;47864;52.526;19.672;2023-01-26T09:00:34;101552.97;;;1.19;100.00
61908;BME280;47864;52.526;19.672;2023-01-26T09:02:35;101551.44;;;1.33;100.00
61908;BME280;47864;52.526;19.672;2023-01-26T09:04:37;101547.44;;;1.45;100.00
61908;BME280;47864;52.526;19.672;2023-01-26T09:06:39;101558.19;;;1.39;100.00
61908;BME280;47864;52.526;19.672;2023-01-26T09:08:41;101548.72;;;1.55;100.00
61908;BME280;47864;52.526;19.672;2023-01-26T09:10:42;101544.75;;;1.46;100.00
61908;BME280;47864;52.526;19.672;2023-01-26T09:12:44;101551.03;;;1.42;100.00
61908;BME280;47864;52.526;19.672;2023-01-26T09:14:45;101549.97;;;1.28;100.00
61908;BME280;47864;52.526;19.672;2023-01-26T09:16:47;101543.25;;;1.41;100.00
61908;BME280;47864;52.526;19.672;2023-01-26T09:18:50;101554.78;;;1.37;100.00
61908;BME280;47864;52.526;19.672;2023-01-26T09:20:52;101542.09;;;1.48;100.00
61908;BME280;47864;52.526;19.672;2023-01-26T09:22:53;101544.94;;;1.42;100.00
61908;BME280;47864;52.526;19.672;2023-01-26T09:24:55;101533.03;;;1.36;100.00
61908;BME280;47864;52.526;19.672;2023-01-26T09:26:57;101538.69;;;1.46;100.00
61908;BME280;47864;52.526;19.672;2023-01-26T09:28:58;101541.06;;;1.50;100.00
61908;BME280;47864;52.526;19.672;2023-01-26T09:31:04;101528.34;;;1.43;100.00
61908;BME280;47864;52.526;19.672;2023-01-26T09:33:06;101532.78;;;1.41;100.00
61908;BME280;47864;52.526;19.672;2023-01-26T09:35:08;101532.88;;;1.39;100.00
61908;BME280;47864;52.526;19.672;2023-01-26T09:37:14;101530.38;;;1.18;100.00
61908;BME280;47864;52.526;19.672;2023-01-26T09:39:15;101534.50;;;1.42;100.00
61908;BME280;47864;52.526;19.672;2023-01-26T09:41:50;101530.13;;;1.42;100.00
61908;BME280;47864;52.526;19.672;2023-01-26T09:44:08;101520.94;;;1.34;100.00
61908;BME280;47864;52.526;19.672;2023-01-26T09:46:22;101520.81;;;1.37;100.00
61908;BME280;47864;52.526;19.672;2023-01-26T09:48:36;101520.50;;;1.43;100.00
61908;BME280;47864;52.526;19.672;2023-01-26T09:51:08;101514.16;;;1.67;100.00
61908;BME280;47864;52.526;19.672;2023-01-26T09:53:15;101515.72;;;1.71;100.00
61908;BME280;47864;52.526;19.672;2023-01-26T09:55:20;101514.94;;;1.50;100.00
61908;BME280;47864;52.526;19.672;2023-01-26T09:57:31;101513.47;;;1.45;100.00
61908;BME280;47864;52.526;19.672;2023-01-26T09:59:44;101516.00;;;1.46;100.00
61908;BME280;47864;52.526;19.672;2023-01-26T10:04:23;101509.69;;;1.69;100.00
61908;BME280;47864;52.526;19.672;2023-01-26T10:06:29;101512.50;;;1.83;100.00
61908;BME280;47864;52.526;19.672;2023-01-26T10:08:31;101513.38;;;1.65;100.00
61908;BME280;47864;52.526;19.672;2023-01-26T10:10:38;101503.25;;;1.76;100.00
61908;BME280;47864;52.526;19.672;2023-01-26T10:12:42;101501.94;;;1.68;100.00
61908;BME280;47864;52.526;19.672;2023-01-26T10:16:59;101504.13;;;1.58;100.00
61908;BME280;47864;52.526;19.672;2023-01-26T10:19:30;101500.03;;;1.52;100.00
61908;BME280;47864;52.526;19.672;2023-01-26T10:21:37;101501.72;;;1.53;100.00
61908;BME280;47864;52.526;19.672;2023-01-26T10:23:46;101501.84;;;1.50;100.00
61908;BME280;47864;52.526;19.672;2023-01-26T10:25:49;101494.66;;;1.56;100.00
61908;BME280;47864;52.526;19.672;2023-01-26T10:27:52;101496.34;;;1.57;100.00
61908;BME280;47864;52.526;19.672;2023-01-26T10:29:54;101494.19;;;1.47;100.00
61908;BME280;47864;52.526;19.672;2023-01-26T10:31:56;101490.06;;;1.61;100.00
61908;BME280;47864;52.526;19.672;2023-01-26T10:34:04;101484.69;;;1.64;100.00
61908;BME280;47864;52.526;19.672;2023-01-26T10:36:11;101483.63;;;1.49;100.00
61908;BME280;47864;52.526;19.672;2023-01-26T10:38:43;101480.53;;;1.60;100.00
61908;BME280;47864;52.526;19.672;2023-01-26T10:40:45;101470.91;;;1.60;100.00
61908;BME280;47864;52.526;19.672;2023-01-26T10:42:55;101472.13;;;1.53;100.00
61908;BME280;47864;52.526;19.672;2023-01-26T10:45:00;101477.91;;;1.60;100.00